^^
Grace C. Lehan Memorial Weather Station Historical Data
Daily Summary for October 5, 2021 Units:  Both    English   Metric
Daily Weekly Monthly Yearly
  High: Low: Average:
Temperature: 61.4 °F /  16.3 °C 53.5 °F /  11.9 °C 57.1 °F /  13.9 °C
Dew Point: 57.8 °F /  14.3 °C 52.7 °F /  11.5 °C 55.2 °F /  12.9 °C
Humidity: 98.4% 86% 94%
Wind Speed: 2.3mph /  3.7km/h - 0.3mph /  0.5km/h
Wind Gust: 10mph /  16.1km/h - -
Wind- - SE
Pressure: 30.33 in /  1027 hPa 30.10 in /  1019.2 hPa -
Precipitation: 0.10 in /  2.54 mm    
 
 
Tabular Data for October 5, 2021
Time Temperature Dew Point Pressure Wind Wind Speed Wind Gust Humidity Rainfall Rate (Hourly) solar
00:09 56.5 °F /  13.6 °C 55.6 °F /  13.1 °C 30.10in /  1019.2hPa North 0.7mph /  1.1km/h 4mph /  6.4km/h 97% 0.32in /  8.13mm 0 W/m2
00:14 56.4 °F /  13.6 °C 55.6 °F /  13.1 °C 30.10in /  1019.2hPa North 0.3mph /  0.5km/h 4mph /  6.4km/h 97% 0.32in /  8.13mm 0 W/m2
00:19 56.4 °F /  13.6 °C 55.6 °F /  13.1 °C 30.10in /  1019.2hPa North 0.3mph /  0.5km/h 6mph /  9.7km/h 97% 0.33in /  8.38mm 0 W/m2
00:24 56.4 °F /  13.6 °C 55.6 °F /  13.1 °C 30.10in /  1019.2hPa North 0.4mph /  0.6km/h 6mph /  9.7km/h 97% 0.33in /  8.38mm 0 W/m2
00:29 56.4 °F /  13.6 °C 55.6 °F /  13.1 °C 30.10in /  1019.2hPa NNE 0.6mph /  1km/h 6mph /  9.7km/h 97% 0.33in /  8.38mm 0 W/m2
00:34 56.5 °F /  13.6 °C 55.6 °F /  13.1 °C 30.10in /  1019.2hPa NE 0.3mph /  0.5km/h 6mph /  9.7km/h 97% 0.33in /  8.38mm 0 W/m2
00:39 56.5 °F /  13.6 °C 55.6 °F /  13.1 °C 30.10in /  1019.2hPa ENE 0.1mph /  0.2km/h 4mph /  6.4km/h 97% 0.14in /  3.56mm 0 W/m2
00:44 56.4 °F /  13.6 °C 55.6 °F /  13.1 °C 30.10in /  1019.2hPa NNE 0.4mph /  0.6km/h 4mph /  6.4km/h 97% 0.15in /  3.81mm 0 W/m2
00:49 56.4 °F /  13.6 °C 55.6 °F /  13.1 °C 30.10in /  1019.2hPa NE 0.1mph /  0.2km/h 4mph /  6.4km/h 97% 0.16in /  4.06mm 0 W/m2
00:54 56.4 °F /  13.6 °C 55.6 °F /  13.1 °C 30.10in /  1019.2hPa North 0.3mph /  0.5km/h 4mph /  6.4km/h 97% 0.16in /  4.06mm 0 W/m2
00:59 56.4 °F /  13.6 °C 55.6 °F /  13.1 °C 30.10in /  1019.2hPa NNW 0.6mph /  1km/h 7mph /  11.3km/h 97% 0.17in /  4.32mm 0 W/m2
01:04 56.4 °F /  13.6 °C 55.6 °F /  13.1 °C 30.10in /  1019.2hPa NNE 0.5mph /  0.8km/h 7mph /  11.3km/h 97% 0.17in /  4.32mm 0 W/m2
01:09 56.4 °F /  13.6 °C 55.6 °F /  13.1 °C 30.11in /  1019.5hPa Calm   5mph /  8km/h 97% 0.06in /  1.52mm 0 W/m2
01:14 56.4 °F /  13.6 °C 55.5 °F /  13.1 °C 30.11in /  1019.5hPa Calm   5mph /  8km/h 97% 0.06in /  1.52mm 0 W/m2
01:19 56.3 °F /  13.5 °C 55.5 °F /  13.1 °C 30.11in /  1019.5hPa Calm   5mph /  8km/h 97% 0.06in /  1.52mm 0 W/m2
01:24 56.2 °F /  13.4 °C 55.4 °F /  13 °C 30.11in /  1019.5hPa NE 0.4mph /  0.6km/h 5mph /  8km/h 97% 0.06in /  1.52mm 0 W/m2
01:29 56.2 °F /  13.4 °C 55.4 °F /  13 °C 30.11in /  1019.5hPa Calm   5mph /  8km/h 97% 0.06in /  1.52mm 0 W/m2
01:34 56.1 °F /  13.4 °C 55.3 °F /  12.9 °C 30.11in /  1019.5hPa North 0.5mph /  0.8km/h 5mph /  8km/h 97% 0.06in /  1.52mm 0 W/m2
01:39 56.1 °F /  13.4 °C 55.2 °F /  12.9 °C 30.11in /  1019.5hPa North 0.5mph /  0.8km/h 7mph /  11.3km/h 97% 0.06in /  1.52mm 0 W/m2
01:44 56 °F /  13.3 °C 55.1 °F /  12.8 °C 30.11in /  1019.5hPa NNE 0.2mph /  0.3km/h 7mph /  11.3km/h 97% 0.06in /  1.52mm 0 W/m2
01:49 55.9 °F /  13.3 °C 55.1 °F /  12.8 °C 30.12in /  1019.9hPa NNE 0.2mph /  0.3km/h 7mph /  11.3km/h 97% 0.06in /  1.52mm 0 W/m2
01:54 55.8 °F /  13.2 °C 55 °F /  12.8 °C 30.12in /  1019.9hPa North 0.6mph /  1km/h 7mph /  11.3km/h 97% 0.06in /  1.52mm 0 W/m2
01:59 55.8 °F /  13.2 °C 55 °F /  12.8 °C 30.12in /  1019.9hPa NE 0.2mph /  0.3km/h 7mph /  11.3km/h 97% 0.06in /  1.52mm 0 W/m2
02:04 55.8 °F /  13.2 °C 55 °F /  12.8 °C 30.12in /  1019.9hPa Calm   7mph /  11.3km/h 97% 0.06in /  1.52mm 0 W/m2
02:09 55.7 °F /  13.2 °C 54.9 °F /  12.7 °C 30.12in /  1019.9hPa Calm   2mph /  3.2km/h 97% 0.00in /  0mm 0 W/m2
02:14 55.7 °F /  13.2 °C 54.9 °F /  12.7 °C 30.12in /  1019.9hPa North 0.3mph /  0.5km/h 6mph /  9.7km/h 97% 0.00in /  0mm 0 W/m2
02:19 55.6 °F /  13.1 °C 54.8 °F /  12.7 °C 30.12in /  1019.9hPa Calm   6mph /  9.7km/h 97% 0.00in /  0mm 0 W/m2
02:24 55.5 °F /  13.1 °C 54.7 °F /  12.6 °C 30.12in /  1019.9hPa NNE 0.4mph /  0.6km/h 6mph /  9.7km/h 97% 0.00in /  0mm 0 W/m2
02:29 55.5 °F /  13.1 °C 54.6 °F /  12.6 °C 30.12in /  1019.9hPa ENE 1mph /  1.6km/h 7mph /  11.3km/h 97% 0.00in /  0mm 0 W/m2
02:34 55.3 °F /  12.9 °C 54.5 °F /  12.5 °C 30.12in /  1019.9hPa NNE 0.2mph /  0.3km/h 7mph /  11.3km/h 97% 0.00in /  0mm 0 W/m2
02:39 55.3 °F /  12.9 °C 54.4 °F /  12.4 °C 30.12in /  1019.9hPa NNE 0.8mph /  1.3km/h 6mph /  9.7km/h 97% 0.00in /  0mm 0 W/m2
02:44 55.2 °F /  12.9 °C 54.4 °F /  12.4 °C 30.12in /  1019.9hPa NNE 0.4mph /  0.6km/h 6mph /  9.7km/h 97% 0.00in /  0mm 0 W/m2
02:49 55.1 °F /  12.8 °C 54.3 °F /  12.4 °C 30.12in /  1019.9hPa NW 0.4mph /  0.6km/h 6mph /  9.7km/h 97% 0.00in /  0mm 0 W/m2
02:54 55.1 °F /  12.8 °C 54.3 °F /  12.4 °C 30.12in /  1019.9hPa North 0.1mph /  0.2km/h 6mph /  9.7km/h 97% 0.01in /  0.25mm 0 W/m2
02:59 55 °F /  12.8 °C 54.2 °F /  12.3 °C 30.12in /  1019.9hPa ESE 0.5mph /  0.8km/h 6mph /  9.7km/h 97% 0.01in /  0.25mm 0 W/m2
03:04 55 °F /  12.8 °C 54.2 °F /  12.3 °C 30.12in /  1019.9hPa Calm   6mph /  9.7km/h 97% 0.01in /  0.25mm 0 W/m2
03:09 55 °F /  12.8 °C 54.1 °F /  12.3 °C 30.12in /  1019.9hPa East 0.4mph /  0.6km/h 4mph /  6.4km/h 97% 0.01in /  0.25mm 0 W/m2
03:14 54.9 °F /  12.7 °C 54 °F /  12.2 °C 30.12in /  1019.9hPa NE 0.3mph /  0.5km/h 4mph /  6.4km/h 97% 0.01in /  0.25mm 0 W/m2
03:19 54.8 °F /  12.7 °C 54 °F /  12.2 °C 30.12in /  1019.9hPa North 0.2mph /  0.3km/h 4mph /  6.4km/h 97% 0.01in /  0.25mm 0 W/m2
03:24 54.8 °F /  12.7 °C 54 °F /  12.2 °C 30.12in /  1019.9hPa ENE 0.6mph /  1km/h 6mph /  9.7km/h 97% 0.01in /  0.25mm 0 W/m2
03:29 54.7 °F /  12.6 °C 53.9 °F /  12.2 °C 30.12in /  1019.9hPa ENE 0.7mph /  1.1km/h 6mph /  9.7km/h 97% 0.01in /  0.25mm 0 W/m2
03:34 54.6 °F /  12.6 °C 53.8 °F /  12.1 °C 30.12in /  1019.9hPa NNE 0.2mph /  0.3km/h 6mph /  9.7km/h 97% 0.01in /  0.25mm 0 W/m2
03:39 54.6 °F /  12.6 °C 53.7 °F /  12.1 °C 30.12in /  1019.9hPa NW 1.2mph /  1.9km/h 7mph /  11.3km/h 97% 0.01in /  0.25mm 0 W/m2
03:44 54.5 °F /  12.5 °C 53.7 °F /  12.1 °C 30.12in /  1019.9hPa NW 0.5mph /  0.8km/h 7mph /  11.3km/h 97% 0.01in /  0.25mm 0 W/m2
03:49 54.5 °F /  12.5 °C 53.6 °F /  12 °C 30.13in /  1020.2hPa NNW 0.3mph /  0.5km/h 7mph /  11.3km/h 97% 0.01in /  0.25mm 0 W/m2
03:54 54.4 °F /  12.4 °C 53.6 °F /  12 °C 30.13in /  1020.2hPa North 0.4mph /  0.6km/h 7mph /  11.3km/h 97% 0.01in /  0.25mm 0 W/m2
03:59 54.4 °F /  12.4 °C 53.6 °F /  12 °C 30.13in /  1020.2hPa NNE 0.2mph /  0.3km/h 7mph /  11.3km/h 97% 0.01in /  0.25mm 0 W/m2
04:00 54.4 °F /  12.4 °C 53.6 °F /  12 °C 30.13in /  1020.2hPa Calm   7mph /  11.3km/h 97% 0.01in /  0.25mm 0 W/m2
04:09 54.3 °F /  12.4 °C 53.4 °F /  11.9 °C 30.13in /  1020.2hPa NNE 0.6mph /  1km/h 4mph /  6.4km/h 97% 0.00in /  0mm 0 W/m2
04:14 54.2 °F /  12.3 °C 53.4 °F /  11.9 °C 30.13in /  1020.2hPa North 0.7mph /  1.1km/h 6mph /  9.7km/h 97% 0.00in /  0mm 0 W/m2
04:19 54.1 °F /  12.3 °C 53.3 °F /  11.8 °C 30.14in /  1020.5hPa North 0.3mph /  0.5km/h 6mph /  9.7km/h 97% 0.00in /  0mm 0 W/m2
04:24 54.1 °F /  12.3 °C 53.3 °F /  11.8 °C 30.14in /  1020.5hPa North 0.5mph /  0.8km/h 6mph /  9.7km/h 97% 0.00in /  0mm 0 W/m2
04:29 54 °F /  12.2 °C 53.2 °F /  11.8 °C 30.15in /  1020.9hPa North 0.3mph /  0.5km/h 7mph /  11.3km/h 97% 0.00in /  0mm 0 W/m2
04:34 54 °F /  12.2 °C 53.2 °F /  11.8 °C 30.15in /  1020.9hPa NNE 0.7mph /  1.1km/h 7mph /  11.3km/h 97% 0.00in /  0mm 0 W/m2
04:39 54 °F /  12.2 °C 53.2 °F /  11.8 °C 30.14in /  1020.5hPa NNE 0.1mph /  0.2km/h 4mph /  6.4km/h 97% 0.00in /  0mm 0 W/m2
04:44 54 °F /  12.2 °C 53.2 °F /  11.8 °C 30.14in /  1020.5hPa North 0.5mph /  0.8km/h 7mph /  11.3km/h 97% 0.00in /  0mm 0 W/m2
04:49 53.9 °F /  12.2 °C 53.1 °F /  11.7 °C 30.14in /  1020.5hPa Calm   7mph /  11.3km/h 97% 0.00in /  0mm 0 W/m2
04:54 53.9 °F /  12.2 °C 53.1 °F /  11.7 °C 30.14in /  1020.5hPa NE 0.3mph /  0.5km/h 7mph /  11.3km/h 97% 0.00in /  0mm 0 W/m2
04:59 53.8 °F /  12.1 °C 53 °F /  11.7 °C 30.14in /  1020.5hPa Calm   7mph /  11.3km/h 97% 0.00in /  0mm 0 W/m2
05:04 53.8 °F /  12.1 °C 53 °F /  11.7 °C 30.14in /  1020.5hPa Calm   7mph /  11.3km/h 97% 0.00in /  0mm 0 W/m2
05:09 53.8 °F /  12.1 °C 53 °F /  11.7 °C 30.14in /  1020.5hPa North 1.2mph /  1.9km/h 7mph /  11.3km/h 97% 0.00in /  0mm 0 W/m2
05:14 53.7 °F /  12.1 °C 52.9 °F /  11.6 °C 30.14in /  1020.5hPa North 0.8mph /  1.3km/h 7mph /  11.3km/h 97% 0.00in /  0mm 0 W/m2
05:19 53.7 °F /  12.1 °C 52.9 °F /  11.6 °C 30.14in /  1020.5hPa North 0.8mph /  1.3km/h 7mph /  11.3km/h 97% 0.00in /  0mm 0 W/m2
05:24 53.6 °F /  12 °C 52.8 °F /  11.6 °C 30.14in /  1020.5hPa NNE 1mph /  1.6km/h 7mph /  11.3km/h 97% 0.00in /  0mm 0 W/m2
05:29 53.5 °F /  11.9 °C 52.7 °F /  11.5 °C 30.14in /  1020.5hPa ENE 0.7mph /  1.1km/h 7mph /  11.3km/h 97% 0.00in /  0mm 0 W/m2
05:34 53.5 °F /  11.9 °C 52.7 °F /  11.5 °C 30.13in /  1020.2hPa ENE 0.1mph /  0.2km/h 7mph /  11.3km/h 97% 0.00in /  0mm 0 W/m2
05:39 53.5 °F /  11.9 °C 52.7 °F /  11.5 °C 30.14in /  1020.5hPa Calm   2mph /  3.2km/h 97% 0.00in /  0mm 0 W/m2
05:44 53.5 °F /  11.9 °C 52.7 °F /  11.5 °C 30.15in /  1020.9hPa Calm   2mph /  3.2km/h 97% 0.00in /  0mm 0 W/m2
05:49 53.5 °F /  11.9 °C 52.7 °F /  11.5 °C 30.15in /  1020.9hPa North 0.4mph /  0.6km/h 7mph /  11.3km/h 97% 0.00in /  0mm 0 W/m2
05:54 53.6 °F /  12 °C 52.7 °F /  11.5 °C 30.15in /  1020.9hPa North 0.1mph /  0.2km/h 7mph /  11.3km/h 97% 0.00in /  0mm 0 W/m2
05:59 53.6 °F /  12 °C 52.8 °F /  11.6 °C 30.16in /  1021.2hPa Calm   7mph /  11.3km/h 97% 0.00in /  0mm 0 W/m2
06:04 53.6 °F /  12 °C 52.8 °F /  11.6 °C 30.16in /  1021.2hPa Calm   7mph /  11.3km/h 97% 0.00in /  0mm 0 W/m2
06:09 53.7 °F /  12.1 °C 52.8 °F /  11.6 °C 30.16in /  1021.2hPa Calm     97% 0.00in /  0mm 0 W/m2
06:14 53.7 °F /  12.1 °C 52.9 °F /  11.6 °C 30.16in /  1021.2hPa Calm     97% 0.00in /  0mm 0 W/m2
06:19 53.8 °F /  12.1 °C 53 °F /  11.7 °C 30.16in /  1021.2hPa Calm     97% 0.00in /  0mm 0 W/m2
06:24 53.8 °F /  12.1 °C 53 °F /  11.7 °C 30.17in /  1021.6hPa Calm     97% 0.00in /  0mm 0 W/m2
06:29 53.7 °F /  12.1 °C 52.9 °F /  11.6 °C 30.17in /  1021.6hPa Calm   1mph /  1.6km/h 97% 0.00in /  0mm 0 W/m2
06:34 53.7 °F /  12.1 °C 52.9 °F /  11.6 °C 30.17in /  1021.6hPa Calm   1mph /  1.6km/h 97% 0.00in /  0mm 0 W/m2
06:39 53.7 °F /  12.1 °C 52.9 °F /  11.6 °C 30.16in /  1021.2hPa NNE 0.1mph /  0.2km/h 2mph /  3.2km/h 97% 0.00in /  0mm 0 W/m2
06:44 53.7 °F /  12.1 °C 52.9 °F /  11.6 °C 30.17in /  1021.6hPa Calm   2mph /  3.2km/h 97% 0.00in /  0mm 0 W/m2
06:49 53.7 °F /  12.1 °C 52.9 °F /  11.6 °C 30.17in /  1021.6hPa NNE 0.4mph /  0.6km/h 6mph /  9.7km/h 97% 0.00in /  0mm 0 W/m2
06:54 53.7 °F /  12.1 °C 52.9 °F /  11.6 °C 30.18in /  1021.9hPa Calm   6mph /  9.7km/h 97% 0.00in /  0mm 0 W/m2
06:59 53.8 °F /  12.1 °C 52.9 °F /  11.6 °C 30.18in /  1021.9hPa NNE 0.2mph /  0.3km/h 6mph /  9.7km/h 97% 0.00in /  0mm 0 W/m2
07:04 53.8 °F /  12.1 °C 53 °F /  11.7 °C 30.18in /  1021.9hPa NNE 0.1mph /  0.2km/h 6mph /  9.7km/h 97% 0.00in /  0mm 0 W/m2
07:09 53.7 °F /  12.1 °C 52.9 °F /  11.6 °C 30.18in /  1021.9hPa Calm   3mph /  4.8km/h 97% 0.00in /  0mm 7 W/m2
07:14 53.8 °F /  12.1 °C 52.9 °F /  11.6 °C 30.18in /  1021.9hPa ENE 0.1mph /  0.2km/h 4mph /  6.4km/h 97% 0.00in /  0mm 7 W/m2
07:19 53.7 °F /  12.1 °C 52.9 °F /  11.6 °C 30.18in /  1021.9hPa NNW 0.6mph /  1km/h 7mph /  11.3km/h 97% 0.00in /  0mm 7 W/m2
07:24 53.7 °F /  12.1 °C 52.9 °F /  11.6 °C 30.18in /  1021.9hPa Calm   7mph /  11.3km/h 97% 0.00in /  0mm 7 W/m2
07:29 53.7 °F /  12.1 °C 52.9 °F /  11.6 °C 30.18in /  1021.9hPa NNE 0.5mph /  0.8km/h 7mph /  11.3km/h 97% 0.00in /  0mm 11 W/m2
07:34 53.7 °F /  12.1 °C 52.9 °F /  11.6 °C 30.19in /  1022.2hPa Calm   7mph /  11.3km/h 97% 0.00in /  0mm 16 W/m2
07:39 53.7 °F /  12.1 °C 52.9 °F /  11.6 °C 30.19in /  1022.2hPa NNE 0.1mph /  0.2km/h 3mph /  4.8km/h 97% 0.00in /  0mm 16 W/m2
07:44 53.7 °F /  12.1 °C 52.9 °F /  11.6 °C 30.19in /  1022.2hPa NE 0.4mph /  0.6km/h 4mph /  6.4km/h 97% 0.00in /  0mm 16 W/m2
07:49 53.7 °F /  12.1 °C 52.9 °F /  11.6 °C 30.19in /  1022.2hPa Calm   4mph /  6.4km/h 97% 0.00in /  0mm 16 W/m2
07:54 53.8 °F /  12.1 °C 52.9 °F /  11.6 °C 30.20in /  1022.6hPa NE 0.1mph /  0.2km/h 4mph /  6.4km/h 97% 0.00in /  0mm 16 W/m2
07:59 53.7 °F /  12.1 °C 52.9 °F /  11.6 °C 30.20in /  1022.6hPa Calm   4mph /  6.4km/h 97% 0.00in /  0mm 19 W/m2
08:00 53.7 °F /  12.1 °C 52.9 °F /  11.6 °C 30.20in /  1022.6hPa Calm   4mph /  6.4km/h 97% 0.00in /  0mm 19 W/m2
08:09 53.6 °F /  12 °C 52.8 °F /  11.6 °C 30.20in /  1022.6hPa NE 0.1mph /  0.2km/h 2mph /  3.2km/h 97% 0.00in /  0mm 26 W/m2
08:14 53.6 °F /  12 °C 52.8 °F /  11.6 °C 30.20in /  1022.6hPa East 0.1mph /  0.2km/h 3mph /  4.8km/h 97% 0.00in /  0mm 26 W/m2
08:19 53.6 °F /  12 °C 52.8 °F /  11.6 °C 30.20in /  1022.6hPa NE 0.3mph /  0.5km/h 3mph /  4.8km/h 97% 0.00in /  0mm 35 W/m2
08:24 53.7 °F /  12.1 °C 52.9 °F /  11.6 °C 30.20in /  1022.6hPa North 0.8mph /  1.3km/h 6mph /  9.7km/h 97% 0.00in /  0mm 56 W/m2
08:29 53.7 °F /  12.1 °C 52.9 °F /  11.6 °C 30.20in /  1022.6hPa North 0.5mph /  0.8km/h 6mph /  9.7km/h 97% 0.00in /  0mm 56 W/m2
08:34 53.9 °F /  12.2 °C 53 °F /  11.7 °C 30.21in /  1022.9hPa Calm   6mph /  9.7km/h 97% 0.00in /  0mm 54 W/m2
08:39 53.9 °F /  12.2 °C 53.1 °F /  11.7 °C 30.21in /  1022.9hPa NNE 0.5mph /  0.8km/h 5mph /  8km/h 97% 0.00in /  0mm 44 W/m2
08:44 53.9 °F /  12.2 °C 53.1 °F /  11.7 °C 30.21in /  1022.9hPa NNE 0.5mph /  0.8km/h 5mph /  8km/h 97% 0.00in /  0mm 53 W/m2
08:49 54 °F /  12.2 °C 53.2 °F /  11.8 °C 30.21in /  1022.9hPa NNE 0.2mph /  0.3km/h 5mph /  8km/h 97% 0.00in /  0mm 67 W/m2
08:54 54 °F /  12.2 °C 53.2 °F /  11.8 °C 30.20in /  1022.6hPa NNE 0.4mph /  0.6km/h 5mph /  8km/h 97% 0.00in /  0mm 79 W/m2
08:59 54.1 °F /  12.3 °C 53.3 °F /  11.8 °C 30.21in /  1022.9hPa NNW 0.2mph /  0.3km/h 5mph /  8km/h 97% 0.00in /  0mm 77 W/m2
09:04 54.3 °F /  12.4 °C 53.5 °F /  11.9 °C 30.22in /  1023.2hPa NW 0.2mph /  0.3km/h 5mph /  8km/h 97% 0.00in /  0mm 84 W/m2
09:09 54.4 °F /  12.4 °C 53.6 °F /  12 °C 30.22in /  1023.2hPa NW 0.3mph /  0.5km/h 5mph /  8km/h 97% 0.00in /  0mm 79 W/m2
09:14 54.5 °F /  12.5 °C 53.8 °F /  12.1 °C 30.22in /  1023.2hPa NNW 0.4mph /  0.6km/h 5mph /  8km/h 97.5% 0.00in /  0mm 62 W/m2
09:19 54.5 °F /  12.5 °C 53.7 °F /  12.1 °C 30.22in /  1023.2hPa NW 0.7mph /  1.1km/h 9mph /  14.5km/h 97% 0.00in /  0mm 62 W/m2
09:24 54.5 °F /  12.5 °C 53.8 °F /  12.1 °C 30.22in /  1023.2hPa NNW 0.2mph /  0.3km/h 9mph /  14.5km/h 97.5% 0.00in /  0mm 54 W/m2
09:29 54.5 °F /  12.5 °C 54.1 °F /  12.3 °C 30.22in /  1023.2hPa NNW 0.5mph /  0.8km/h 9mph /  14.5km/h 98.4% 0.00in /  0mm 72 W/m2
09:34 54.6 °F /  12.6 °C 53.8 °F /  12.1 °C 30.22in /  1023.2hPa NE 0.1mph /  0.2km/h 9mph /  14.5km/h 97% 0.00in /  0mm 104 W/m2
09:39 54.8 °F /  12.7 °C 53.9 °F /  12.2 °C 30.22in /  1023.2hPa NE 0.4mph /  0.6km/h 4mph /  6.4km/h 97% 0.00in /  0mm 118 W/m2
09:44 55 °F /  12.8 °C 54.1 °F /  12.3 °C 30.22in /  1023.2hPa ENE 0.6mph /  1km/h 5mph /  8km/h 97% 0.00in /  0mm 137 W/m2
09:49 55 °F /  12.8 °C 54.2 °F /  12.3 °C 30.22in /  1023.2hPa ENE 0.9mph /  1.4km/h 7mph /  11.3km/h 97% 0.00in /  0mm 153 W/m2
09:54 54.9 °F /  12.7 °C 54.1 °F /  12.3 °C 30.22in /  1023.2hPa NE 1.1mph /  1.8km/h 7mph /  11.3km/h 97% 0.00in /  0mm 165 W/m2
09:59 55 °F /  12.8 °C 54.2 °F /  12.3 °C 30.23in /  1023.6hPa NNW 0.2mph /  0.3km/h 7mph /  11.3km/h 97% 0.00in /  0mm 134 W/m2
10:04 55.1 °F /  12.8 °C 54.3 °F /  12.4 °C 30.23in /  1023.6hPa East 0.9mph /  1.4km/h 7mph /  11.3km/h 97% 0.00in /  0mm 109 W/m2
10:09 54.9 °F /  12.7 °C 54.1 °F /  12.3 °C 30.23in /  1023.6hPa SSW 0.2mph /  0.3km/h 6mph /  9.7km/h 97% 0.00in /  0mm 139 W/m2
10:14 55 °F /  12.8 °C 54.1 °F /  12.3 °C 30.23in /  1023.6hPa NNE 0.7mph /  1.1km/h 6mph /  9.7km/h 97% 0.00in /  0mm 163 W/m2
10:19 55.1 °F /  12.8 °C 54.3 °F /  12.4 °C 30.23in /  1023.6hPa NNE 0.5mph /  0.8km/h 6mph /  9.7km/h 97% 0.00in /  0mm 153 W/m2
10:24 55.3 °F /  12.9 °C 54.5 °F /  12.5 °C 30.23in /  1023.6hPa NE 0.1mph /  0.2km/h 6mph /  9.7km/h 97% 0.00in /  0mm 172 W/m2
10:29 55.4 °F /  13 °C 54.6 °F /  12.6 °C 30.23in /  1023.6hPa NE 0.7mph /  1.1km/h 6mph /  9.7km/h 97% 0.00in /  0mm 116 W/m2
10:34 55.4 °F /  13 °C 54.6 °F /  12.6 °C 30.23in /  1023.6hPa ENE 1.1mph /  1.8km/h 6mph /  9.7km/h 97% 0.00in /  0mm 167 W/m2
10:39 55.4 °F /  13 °C 54.6 °F /  12.6 °C 30.23in /  1023.6hPa ENE 0.8mph /  1.3km/h 5mph /  8km/h 97% 0.00in /  0mm 146 W/m2
10:44 55.4 °F /  13 °C 54.6 °F /  12.6 °C 30.23in /  1023.6hPa Calm   5mph /  8km/h 97% 0.00in /  0mm 120 W/m2
10:49 55.6 °F /  13.1 °C 54.8 °F /  12.7 °C 30.23in /  1023.6hPa Calm   5mph /  8km/h 97% 0.00in /  0mm 97 W/m2
10:54 55.9 °F /  13.3 °C 55.1 °F /  12.8 °C 30.24in /  1023.9hPa Calm   5mph /  8km/h 97% 0.00in /  0mm 163 W/m2
10:59 56.2 °F /  13.4 °C 55.4 °F /  13 °C 30.24in /  1023.9hPa Calm   5mph /  8km/h 97% 0.00in /  0mm 163 W/m2
11:04 56.4 °F /  13.6 °C 55.6 °F /  13.1 °C 30.23in /  1023.6hPa ENE 0.2mph /  0.3km/h 5mph /  8km/h 97% 0.00in /  0mm 148 W/m2
11:09 56.5 °F /  13.6 °C 55.7 °F /  13.2 °C 30.24in /  1023.9hPa East 0.5mph /  0.8km/h 4mph /  6.4km/h 97% 0.00in /  0mm 227 W/m2
11:14 56.3 °F /  13.5 °C 55.5 °F /  13.1 °C 30.24in /  1023.9hPa ENE 2mph /  3.2km/h 10mph /  16.1km/h 97% 0.00in /  0mm 253 W/m2
11:19 56.5 °F /  13.6 °C 55.5 °F /  13.1 °C 30.23in /  1023.6hPa East 0.6mph /  1km/h 10mph /  16.1km/h 96.3% 0.00in /  0mm 251 W/m2
11:24 56.8 °F /  13.8 °C 55.7 °F /  13.2 °C 30.23in /  1023.6hPa ENE 1mph /  1.6km/h 10mph /  16.1km/h 96% 0.00in /  0mm 171 W/m2
11:29 57 °F /  13.9 °C 55.8 °F /  13.2 °C 30.24in /  1023.9hPa ENE 0.5mph /  0.8km/h 10mph /  16.1km/h 95.5% 0.00in /  0mm 120 W/m2
11:34 57.3 °F /  14.1 °C 55.8 °F /  13.2 °C 30.24in /  1023.9hPa NNW 0.3mph /  0.5km/h 10mph /  16.1km/h 95% 0.00in /  0mm 121 W/m2
11:39 57.4 °F /  14.1 °C 56 °F /  13.3 °C 30.24in /  1023.9hPa NNW 0.2mph /  0.3km/h 4mph /  6.4km/h 95% 0.00in /  0mm 142 W/m2
11:44 57.7 °F /  14.3 °C 56.2 °F /  13.4 °C 30.24in /  1023.9hPa NNW 0.8mph /  1.3km/h 6mph /  9.7km/h 94.7% 0.00in /  0mm 135 W/m2
11:49 57.9 °F /  14.4 °C 56.1 °F /  13.4 °C 30.24in /  1023.9hPa NNE 0.4mph /  0.6km/h 6mph /  9.7km/h 94% 0.00in /  0mm 151 W/m2
11:54 58.1 °F /  14.5 °C 56.4 °F /  13.6 °C 30.24in /  1023.9hPa NNW 0.7mph /  1.1km/h 7mph /  11.3km/h 94% 0.00in /  0mm 134 W/m2
11:59 58.3 °F /  14.6 °C 56.5 °F /  13.6 °C 30.24in /  1023.9hPa NW 0.4mph /  0.6km/h 7mph /  11.3km/h 93.6% 0.00in /  0mm 158 W/m2
12:09 58.5 °F /  14.7 °C 56.5 °F /  13.6 °C 30.24in /  1023.9hPa NNW 0.3mph /  0.5km/h 3mph /  4.8km/h 93% 0.00in /  0mm 156 W/m2
12:14 58.6 °F /  14.8 °C 56.4 °F /  13.6 °C 30.24in /  1023.9hPa NE 0.5mph /  0.8km/h 4mph /  6.4km/h 92.2% 0.00in /  0mm 197 W/m2
12:19 58.8 °F /  14.9 °C 56.5 °F /  13.6 °C 30.24in /  1023.9hPa NE 0.2mph /  0.3km/h 4mph /  6.4km/h 92% 0.00in /  0mm 193 W/m2
12:24 59 °F /  15 °C 56.7 °F /  13.7 °C 30.24in /  1023.9hPa NE 0.3mph /  0.5km/h 4mph /  6.4km/h 92% 0.00in /  0mm 244 W/m2
12:29 59.2 °F /  15.1 °C 56.8 °F /  13.8 °C 30.24in /  1023.9hPa ENE 0.3mph /  0.5km/h 4mph /  6.4km/h 91.6% 0.00in /  0mm 264 W/m2
12:34 59.4 °F /  15.2 °C 56.8 °F /  13.8 °C 30.24in /  1023.9hPa ENE 0.4mph /  0.6km/h 4mph /  6.4km/h 91% 0.00in /  0mm 223 W/m2
12:39 59.6 °F /  15.3 °C 56.8 °F /  13.8 °C 30.23in /  1023.6hPa NNE 0.1mph /  0.2km/h 4mph /  6.4km/h 90.3% 0.00in /  0mm 221 W/m2
12:44 59.8 °F /  15.4 °C 56.8 °F /  13.8 °C 30.23in /  1023.6hPa NE 0.8mph /  1.3km/h 4mph /  6.4km/h 89.7% 0.00in /  0mm 214 W/m2
12:49 59.9 °F /  15.5 °C 56.6 °F /  13.7 °C 30.23in /  1023.6hPa NNW 0.6mph /  1km/h 4mph /  6.4km/h 88.8% 0.00in /  0mm 169 W/m2
12:54 60 °F /  15.6 °C 56.8 °F /  13.8 °C 30.23in /  1023.6hPa NE 0.3mph /  0.5km/h 4mph /  6.4km/h 89.2% 0.00in /  0mm 220 W/m2
12:59 60.2 °F /  15.7 °C 56.9 °F /  13.8 °C 30.22in /  1023.2hPa ENE 0.7mph /  1.1km/h 5mph /  8km/h 88.9% 0.00in /  0mm 225 W/m2
13:04 60.2 °F /  15.7 °C 56.5 °F /  13.6 °C 30.22in /  1023.2hPa ENE 0.5mph /  0.8km/h 5mph /  8km/h 87.4% 0.00in /  0mm 199 W/m2
13:09 60.3 °F /  15.7 °C 56.6 °F /  13.7 °C 30.22in /  1023.2hPa North 0.5mph /  0.8km/h 4mph /  6.4km/h 87.7% 0.00in /  0mm 172 W/m2
13:14 60.4 °F /  15.8 °C 56.7 °F /  13.7 °C 30.23in /  1023.6hPa ENE 2.3mph /  3.7km/h 9mph /  14.5km/h 87.6% 0.00in /  0mm 176 W/m2
13:19 60.3 °F /  15.7 °C 56.4 °F /  13.6 °C 30.22in /  1023.2hPa ENE 0.1mph /  0.2km/h 9mph /  14.5km/h 87% 0.00in /  0mm 179 W/m2
13:24 60.3 °F /  15.7 °C 56.5 °F /  13.6 °C 30.22in /  1023.2hPa NE 1.3mph /  2.1km/h 9mph /  14.5km/h 87% 0.00in /  0mm 195 W/m2
13:29 60.5 °F /  15.8 °C 56.8 °F /  13.8 °C 30.22in /  1023.2hPa NNW 0.7mph /  1.1km/h 9mph /  14.5km/h 87.8% 0.00in /  0mm 190 W/m2
13:34 60.7 °F /  15.9 °C 56.9 °F /  13.8 °C 30.22in /  1023.2hPa NE 0.6mph /  1km/h 9mph /  14.5km/h 87.4% 0.00in /  0mm 179 W/m2
13:39 60.8 °F /  16 °C 56.9 °F /  13.8 °C 30.22in /  1023.2hPa ENE 0.8mph /  1.3km/h 4mph /  6.4km/h 87.1% 0.00in /  0mm 171 W/m2
13:44 60.8 °F /  16 °C 56.5 °F /  13.6 °C 30.22in /  1023.2hPa ENE 0.1mph /  0.2km/h 4mph /  6.4km/h 86% 0.00in /  0mm 139 W/m2
13:49 60.8 °F /  16 °C 56.7 °F /  13.7 °C 30.22in /  1023.2hPa ENE 0.4mph /  0.6km/h 4mph /  6.4km/h 86.2% 0.00in /  0mm 171 W/m2
13:54 60.9 °F /  16.1 °C 56.9 °F /  13.8 °C 30.22in /  1023.2hPa Calm   4mph /  6.4km/h 86.7% 0.00in /  0mm 153 W/m2
13:59 61 °F /  16.1 °C 57.1 °F /  13.9 °C 30.22in /  1023.2hPa NW 0.4mph /  0.6km/h 4mph /  6.4km/h 86.8% 0.00in /  0mm 120 W/m2
14:04 61.2 °F /  16.2 °C 57.3 °F /  14.1 °C 30.22in /  1023.2hPa North 0.4mph /  0.6km/h 4mph /  6.4km/h 87% 0.00in /  0mm 98 W/m2
14:09 61.1 °F /  16.2 °C 57.1 °F /  13.9 °C 30.22in /  1023.2hPa North 0.4mph /  0.6km/h 4mph /  6.4km/h 86.5% 0.00in /  0mm 100 W/m2
14:14 61.1 °F /  16.2 °C 57.1 °F /  13.9 °C 30.22in /  1023.2hPa North 0.5mph /  0.8km/h 5mph /  8km/h 86.8% 0.00in /  0mm 100 W/m2
14:19 61.1 °F /  16.2 °C 56.9 °F /  13.8 °C 30.23in /  1023.6hPa Calm   5mph /  8km/h 86% 0.00in /  0mm 113 W/m2
14:24 61.1 °F /  16.2 °C 57.1 °F /  13.9 °C 30.23in /  1023.6hPa Calm   5mph /  8km/h 86.5% 0.00in /  0mm 114 W/m2
14:29 61.1 °F /  16.2 °C 57.2 °F /  14 °C 30.23in /  1023.6hPa NNE 0.2mph /  0.3km/h 5mph /  8km/h 87% 0.00in /  0mm 91 W/m2
14:34 61.1 °F /  16.2 °C 56.9 °F /  13.8 °C 30.23in /  1023.6hPa Calm   5mph /  8km/h 86.2% 0.00in /  0mm 102 W/m2
14:39 61.1 °F /  16.2 °C 57.2 °F /  14 °C 30.23in /  1023.6hPa NNE 0.1mph /  0.2km/h 2mph /  3.2km/h 87% 0.00in /  0mm 104 W/m2
14:44 61.1 °F /  16.2 °C 57.2 °F /  14 °C 30.23in /  1023.6hPa NNE 0.3mph /  0.5km/h 4mph /  6.4km/h 87% 0.00in /  0mm 125 W/m2
14:49 61 °F /  16.1 °C 56.8 °F /  13.8 °C 30.23in /  1023.6hPa East 0.2mph /  0.3km/h 4mph /  6.4km/h 86.1% 0.00in /  0mm 156 W/m2
14:54 61 °F /  16.1 °C 57 °F /  13.9 °C 30.23in /  1023.6hPa Calm   4mph /  6.4km/h 86.5% 0.00in /  0mm 141 W/m2
14:59 61.1 °F /  16.2 °C 57.2 °F /  14 °C 30.22in /  1023.2hPa ENE 1.1mph /  1.8km/h 7mph /  11.3km/h 87% 0.00in /  0mm 91 W/m2
15:04 61.1 °F /  16.2 °C 57.2 °F /  14 °C 30.22in /  1023.2hPa North 0.7mph /  1.1km/h 7mph /  11.3km/h 87% 0.00in /  0mm 90 W/m2
15:09 61.1 °F /  16.2 °C 57 °F /  13.9 °C 30.23in /  1023.6hPa ENE 0.2mph /  0.3km/h 5mph /  8km/h 86.5% 0.00in /  0mm 111 W/m2
15:14 61.1 °F /  16.2 °C 57.2 °F /  14 °C 30.23in /  1023.6hPa ENE 0.1mph /  0.2km/h 5mph /  8km/h 87% 0.00in /  0mm 134 W/m2
15:19 61.1 °F /  16.2 °C 57.2 °F /  14 °C 30.23in /  1023.6hPa ENE 0.1mph /  0.2km/h 5mph /  8km/h 87% 0.00in /  0mm 116 W/m2
15:24 61.1 °F /  16.2 °C 57.2 °F /  14 °C 30.23in /  1023.6hPa NNW 2.1mph /  3.4km/h 10mph /  16.1km/h 87% 0.00in /  0mm 111 W/m2
15:29 61 °F /  16.1 °C 56.9 °F /  13.8 °C 30.23in /  1023.6hPa NW 0.8mph /  1.3km/h 10mph /  16.1km/h 86.4% 0.00in /  0mm 121 W/m2
15:34 61.1 °F /  16.2 °C 57.2 °F /  14 °C 30.23in /  1023.6hPa Calm   10mph /  16.1km/h 87% 0.00in /  0mm 111 W/m2
15:39 61.1 °F /  16.2 °C 57.2 °F /  14 °C 30.23in /  1023.6hPa NW 0.1mph /  0.2km/h 4mph /  6.4km/h 87% 0.00in /  0mm 91 W/m2
15:44 61.1 °F /  16.2 °C 57.2 °F /  14 °C 30.23in /  1023.6hPa NW 0.3mph /  0.5km/h 4mph /  6.4km/h 87% 0.00in /  0mm 97 W/m2
15:49 61.2 °F /  16.2 °C 57.3 °F /  14.1 °C 30.23in /  1023.6hPa NNW 0.3mph /  0.5km/h 4mph /  6.4km/h 87% 0.00in /  0mm 90 W/m2
15:54 61.2 °F /  16.2 °C 57.3 °F /  14.1 °C 30.23in /  1023.6hPa NNW 0.7mph /  1.1km/h 5mph /  8km/h 87.1% 0.00in /  0mm 91 W/m2
15:59 61.3 °F /  16.3 °C 57.6 °F /  14.2 °C 30.23in /  1023.6hPa Calm   5mph /  8km/h 87.7% 0.00in /  0mm 90 W/m2
16:00 61.4 °F /  16.3 °C 57.8 °F /  14.3 °C 30.23in /  1023.6hPa Calm   5mph /  8km/h 88% 0.00in /  0mm 83 W/m2
16:09 61.3 °F /  16.3 °C 57.4 °F /  14.1 °C 30.23in /  1023.6hPa North 1.9mph /  3.1km/h 5mph /  8km/h 87% 0.00in /  0mm 97 W/m2
16:14 61.3 °F /  16.3 °C 57.4 °F /  14.1 °C 30.23in /  1023.6hPa Calm   5mph /  8km/h 87% 0.00in /  0mm 102 W/m2
16:19 61.3 °F /  16.3 °C 57.4 °F /  14.1 °C 30.23in /  1023.6hPa NNW 0.5mph /  0.8km/h 5mph /  8km/h 87% 0.00in /  0mm 95 W/m2
16:24 61.3 °F /  16.3 °C 57.4 °F /  14.1 °C 30.23in /  1023.6hPa NNW 0.8mph /  1.3km/h 5mph /  8km/h 87% 0.00in /  0mm 86 W/m2
16:29 61.4 °F /  16.3 °C 57.5 °F /  14.2 °C 30.23in /  1023.6hPa NNW 0.1mph /  0.2km/h 5mph /  8km/h 87% 0.00in /  0mm 90 W/m2
16:34 61.4 °F /  16.3 °C 57.5 °F /  14.2 °C 30.23in /  1023.6hPa NNW 0.5mph /  0.8km/h 5mph /  8km/h 87% 0.00in /  0mm 83 W/m2
16:39 61.4 °F /  16.3 °C 57.5 °F /  14.2 °C 30.23in /  1023.6hPa Calm   5mph /  8km/h 87% 0.00in /  0mm 70 W/m2
16:44 61.4 °F /  16.3 °C 57.3 °F /  14.1 °C 30.23in /  1023.6hPa NNW 0.1mph /  0.2km/h 5mph /  8km/h 86.5% 0.00in /  0mm 63 W/m2
16:49 61.3 °F /  16.3 °C 57.4 °F /  14.1 °C 30.23in /  1023.6hPa North 0.1mph /  0.2km/h 5mph /  8km/h 87% 0.00in /  0mm 44 W/m2
16:54 61.2 °F /  16.2 °C 57.1 °F /  13.9 °C 30.24in /  1023.9hPa North 0.7mph /  1.1km/h 6mph /  9.7km/h 86.4% 0.00in /  0mm 51 W/m2
16:59 61.1 °F /  16.2 °C 56.9 °F /  13.8 °C 30.24in /  1023.9hPa NNE 0.1mph /  0.2km/h 6mph /  9.7km/h 86% 0.00in /  0mm 51 W/m2
17:04 61 °F /  16.1 °C 56.9 °F /  13.8 °C 30.24in /  1023.9hPa Calm   6mph /  9.7km/h 86.2% 0.00in /  0mm 42 W/m2
17:09 61 °F /  16.1 °C 56.9 °F /  13.8 °C 30.24in /  1023.9hPa Calm     86.3% 0.00in /  0mm 39 W/m2
17:14 60.9 °F /  16.1 °C 57 °F /  13.9 °C 30.24in /  1023.9hPa Calm     87% 0.00in /  0mm 30 W/m2
17:19 60.9 °F /  16.1 °C 57 °F /  13.9 °C 30.24in /  1023.9hPa NNE 0.1mph /  0.2km/h 3mph /  4.8km/h 87% 0.00in /  0mm 28 W/m2
17:24 60.8 °F /  16 °C 56.9 °F /  13.8 °C 30.24in /  1023.9hPa Calm   3mph /  4.8km/h 87% 0.00in /  0mm 28 W/m2
17:25 60.7 °F /  15.9 °C 56.8 °F /  13.8 °C 30.24in /  1023.9hPa NNE 1mph /  1.6km/h 3mph /  4.8km/h 87% 0.00in /  0mm 25 W/m2
17:30 60.7 °F /  15.9 °C 56.8 °F /  13.8 °C 30.24in /  1023.9hPa Calm   3mph /  4.8km/h 87% 0.00in /  0mm 29 W/m2
18:00 60.4 °F /  15.8 °C 56.8 °F /  13.8 °C 30.25in /  1024.3hPa Calm   2mph /  3.2km/h 88% 0.00in /  0mm 13 W/m2
18:30 60.2 °F /  15.7 °C 57 °F /  13.9 °C 30.25in /  1024.3hPa Calm     89% 0.00in /  0mm 3 W/m2
19:30 59.4 °F /  15.2 °C 56.8 °F /  13.8 °C 30.28in /  1025.3hPa Calm   4mph /  6.4km/h 91% 0.00in /  0mm 0 W/m2
20:04 59.1 °F /  15.1 °C 56.5 °F /  13.6 °C 30.28in /  1025.3hPa Calm     91% 0.00in /  0mm 0 W/m2
20:09 59.1 °F /  15.1 °C 56.5 °F /  13.6 °C 30.29in /  1025.6hPa Calm     91% 0.00in /  0mm 0 W/m2
20:14 59.1 °F /  15.1 °C 56.5 °F /  13.6 °C 30.28in /  1025.3hPa Calm     91% 0.00in /  0mm 0 W/m2
20:19 59.1 °F /  15.1 °C 56.5 °F /  13.6 °C 30.29in /  1025.6hPa Calm   3mph /  4.8km/h 91% 0.00in /  0mm 0 W/m2
20:24 59.1 °F /  15.1 °C 56.5 °F /  13.6 °C 30.29in /  1025.6hPa North 0.5mph /  0.8km/h 4mph /  6.4km/h 91% 0.00in /  0mm 0 W/m2
20:29 59.1 °F /  15.1 °C 56.5 °F /  13.6 °C 30.29in /  1025.6hPa North 0.1mph /  0.2km/h 4mph /  6.4km/h 91% 0.00in /  0mm 0 W/m2
20:34 59.1 °F /  15.1 °C 56.5 °F /  13.6 °C 30.29in /  1025.6hPa Calm   4mph /  6.4km/h 91% 0.00in /  0mm 0 W/m2
20:39 59 °F /  15 °C 56.5 °F /  13.6 °C 30.29in /  1025.6hPa North 0.1mph /  0.2km/h 3mph /  4.8km/h 91.3% 0.00in /  0mm 0 W/m2
20:44 59 °F /  15 °C 56.7 °F /  13.7 °C 30.29in /  1025.6hPa North 0.1mph /  0.2km/h 4mph /  6.4km/h 92% 0.00in /  0mm 0 W/m2
20:49 59 °F /  15 °C 56.7 °F /  13.7 °C 30.30in /  1026hPa Calm   4mph /  6.4km/h 92% 0.00in /  0mm 0 W/m2
20:54 58.9 °F /  14.9 °C 56.6 °F /  13.7 °C 30.30in /  1026hPa Calm   4mph /  6.4km/h 92% 0.00in /  0mm 0 W/m2
20:59 58.9 °F /  14.9 °C 56.6 °F /  13.7 °C 30.30in /  1026hPa Calm   4mph /  6.4km/h 92% 0.00in /  0mm 0 W/m2
21:04 58.9 °F /  14.9 °C 56.6 °F /  13.7 °C 30.30in /  1026hPa North 0.1mph /  0.2km/h 4mph /  6.4km/h 92% 0.00in /  0mm 0 W/m2
21:09 58.9 °F /  14.9 °C 56.6 °F /  13.7 °C 30.30in /  1026hPa Calm   2mph /  3.2km/h 92% 0.00in /  0mm 0 W/m2
21:14 58.9 °F /  14.9 °C 56.6 °F /  13.7 °C 30.30in /  1026hPa North 0.1mph /  0.2km/h 2mph /  3.2km/h 92% 0.00in /  0mm 0 W/m2
21:19 58.8 °F /  14.9 °C 56.5 °F /  13.6 °C 30.30in /  1026hPa Calm   2mph /  3.2km/h 92% 0.00in /  0mm 0 W/m2
21:24 58.8 °F /  14.9 °C 56.5 °F /  13.6 °C 30.30in /  1026hPa Calm   2mph /  3.2km/h 92% 0.00in /  0mm 0 W/m2
21:29 58.8 °F /  14.9 °C 56.5 °F /  13.6 °C 30.30in /  1026hPa North 0.1mph /  0.2km/h 4mph /  6.4km/h 92% 0.00in /  0mm 0 W/m2
21:34 58.7 °F /  14.8 °C 56.4 °F /  13.6 °C 30.30in /  1026hPa North 0.4mph /  0.6km/h 4mph /  6.4km/h 92% 0.00in /  0mm 0 W/m2
21:39 58.7 °F /  14.8 °C 56.4 °F /  13.6 °C 30.30in /  1026hPa North 0.3mph /  0.5km/h 4mph /  6.4km/h 92% 0.00in /  0mm 0 W/m2
21:44 58.7 °F /  14.8 °C 56.4 °F /  13.6 °C 30.30in /  1026hPa Calm   4mph /  6.4km/h 92% 0.00in /  0mm 0 W/m2
21:49 58.6 °F /  14.8 °C 56.3 °F /  13.5 °C 30.30in /  1026hPa Calm   4mph /  6.4km/h 92% 0.00in /  0mm 0 W/m2
21:54 58.6 °F /  14.8 °C 56.5 °F /  13.6 °C 30.30in /  1026hPa North 0.1mph /  0.2km/h 4mph /  6.4km/h 92.5% 0.00in /  0mm 0 W/m2
21:59 58.6 °F /  14.8 °C 56.6 °F /  13.7 °C 30.30in /  1026hPa Calm   4mph /  6.4km/h 93% 0.00in /  0mm 0 W/m2
22:04 58.6 °F /  14.8 °C 56.6 °F /  13.7 °C 30.30in /  1026hPa Calm   4mph /  6.4km/h 93% 0.00in /  0mm 0 W/m2
22:09 58.6 °F /  14.8 °C 56.6 °F /  13.7 °C 30.30in /  1026hPa Calm     93% 0.00in /  0mm 0 W/m2
22:14 58.5 °F /  14.7 °C 56.5 °F /  13.6 °C 30.31in /  1026.3hPa Calm     93% 0.00in /  0mm 0 W/m2
22:19 58.5 °F /  14.7 °C 56.5 °F /  13.6 °C 30.31in /  1026.3hPa North 0.1mph /  0.2km/h 2mph /  3.2km/h 93% 0.00in /  0mm 0 W/m2
22:24 58.5 °F /  14.7 °C 56.5 °F /  13.6 °C 30.31in /  1026.3hPa Calm   2mph /  3.2km/h 93% 0.00in /  0mm 0 W/m2
22:29 58.5 °F /  14.7 °C 56.5 °F /  13.6 °C 30.31in /  1026.3hPa Calm   2mph /  3.2km/h 93% 0.00in /  0mm 0 W/m2
22:34 58.4 °F /  14.7 °C 56.4 °F /  13.6 °C 30.31in /  1026.3hPa Calm   2mph /  3.2km/h 93% 0.00in /  0mm 0 W/m2
22:39 58.4 °F /  14.7 °C 56.4 °F /  13.6 °C 30.32in /  1026.6hPa Calm     93% 0.00in /  0mm 0 W/m2
22:44 58.3 °F /  14.6 °C 56.2 °F /  13.4 °C 30.32in /  1026.6hPa Calm     92.6% 0.00in /  0mm 0 W/m2
22:49 58.2 °F /  14.6 °C 55.9 °F /  13.3 °C 30.32in /  1026.6hPa Calm   1mph /  1.6km/h 92% 0.00in /  0mm 0 W/m2
22:54 58.1 °F /  14.5 °C 55.8 °F /  13.2 °C 30.32in /  1026.6hPa Calm   1mph /  1.6km/h 92% 0.00in /  0mm 0 W/m2
22:59 58 °F /  14.4 °C 55.7 °F /  13.2 °C 30.32in /  1026.6hPa Calm   1mph /  1.6km/h 92.1% 0.00in /  0mm 0 W/m2
23:04 57.9 °F /  14.4 °C 55.9 °F /  13.3 °C 30.32in /  1026.6hPa Calm   1mph /  1.6km/h 93% 0.00in /  0mm 0 W/m2
23:09 57.8 °F /  14.3 °C 55.8 °F /  13.2 °C 30.32in /  1026.6hPa Calm     93% 0.00in /  0mm 0 W/m2
23:14 57.7 °F /  14.3 °C 55.7 °F /  13.2 °C 30.32in /  1026.6hPa Calm     93% 0.00in /  0mm 0 W/m2
23:19 57.7 °F /  14.3 °C 55.7 °F /  13.2 °C 30.32in /  1026.6hPa Calm     93% 0.00in /  0mm 0 W/m2
23:24 57.6 °F /  14.2 °C 55.6 °F /  13.1 °C 30.32in /  1026.6hPa Calm     93% 0.00in /  0mm 0 W/m2
23:29 57.6 °F /  14.2 °C 55.6 °F /  13.1 °C 30.32in /  1026.6hPa Calm     93% 0.00in /  0mm 0 W/m2
23:34 57.6 °F /  14.2 °C 55.6 °F /  13.1 °C 30.32in /  1026.6hPa Calm     93% 0.00in /  0mm 0 W/m2
23:39 57.5 °F /  14.2 °C 55.5 °F /  13.1 °C 30.32in /  1026.6hPa Calm     93% 0.00in /  0mm 0 W/m2
23:44 57.5 °F /  14.2 °C 55.5 °F /  13.1 °C 30.32in /  1026.6hPa Calm     93% 0.00in /  0mm 0 W/m2
23:49 57.5 °F /  14.2 °C 55.5 °F /  13.1 °C 30.32in /  1026.6hPa Calm     93% 0.00in /  0mm 0 W/m2
23:54 57.5 °F /  14.2 °C 55.7 °F /  13.2 °C 30.33in /  1027hPa Calm     93.7% 0.00in /  0mm 0 W/m2
23:59 57.5 °F /  14.2 °C 55.8 °F /  13.2 °C 30.33in /  1027hPa Calm     94% 0.00in /  0mm 0 W/m2
Hartford County Weather
Compliments of Weather Underground - 4 mb